createdAt,value
2022-12-19T00:00:36.443Z,-2.40
2022-12-19T00:03:04.823Z,-2.38
2022-12-19T00:05:37.040Z,-2.40
2022-12-19T00:08:17.612Z,-1.87
2022-12-19T00:10:55.675Z,-2.04
2022-12-19T00:13:24.447Z,-2.14
2022-12-19T00:15:52.544Z,-3.06
2022-12-19T00:18:20.645Z,-2.48
2022-12-19T00:20:56.909Z,-2.58
2022-12-19T00:23:24.935Z,-2.75
2022-12-19T00:25:53.325Z,-2.33
2022-12-19T00:28:21.910Z,-2.53
2022-12-19T00:30:49.805Z,-2.58
2022-12-19T00:33:19.956Z,-2.53
2022-12-19T00:35:47.888Z,-2.33
2022-12-19T00:38:15.768Z,-1.75
2022-12-19T00:40:44.025Z,-2.11
2022-12-19T00:43:11.881Z,-2.52
2022-12-19T00:45:39.803Z,-2.11
2022-12-19T00:48:08.111Z,-1.84
2022-12-19T00:50:37.692Z,-2.18
2022-12-19T00:53:05.561Z,-2.21
2022-12-19T00:55:34.660Z,-2.04
2022-12-19T00:58:02.490Z,-1.98
2022-12-19T01:00:30.349Z,-2.20
2022-12-19T01:02:58.916Z,-2.32
2022-12-19T01:05:26.891Z,-2.49
2022-12-19T01:07:55.102Z,-1.91
2022-12-19T01:10:23.374Z,-2.16
2022-12-19T01:12:51.277Z,-2.20
2022-12-19T01:15:20.847Z,-2.57
2022-12-19T01:17:49.653Z,-2.01
2022-12-19T01:20:21.625Z,-2.17
2022-12-19T01:23:00.084Z,-2.06
2022-12-19T01:25:28.525Z,-2.25
2022-12-19T01:27:56.990Z,-2.19
2022-12-19T01:30:26.033Z,-2.02
2022-12-19T01:32:54.019Z,-1.93
2022-12-19T01:35:22.398Z,-1.80
2022-12-19T01:37:51.961Z,-1.77
2022-12-19T01:40:26.743Z,-1.98
2022-12-19T01:42:54.994Z,-2.11
2022-12-19T01:45:34.997Z,-2.48
2022-12-19T01:48:23.168Z,-2.31
2022-12-19T01:51:03.492Z,-2.38
2022-12-19T01:53:49.174Z,-2.06
2022-12-19T01:56:24.503Z,-1.89
2022-12-19T01:59:05.627Z,-2.22
2022-12-19T02:01:39.627Z,-2.20
2022-12-19T02:04:24.658Z,-2.25
2022-12-19T02:06:56.146Z,-2.12
2022-12-19T02:09:25.726Z,-1.78
2022-12-19T02:11:54.010Z,-1.57
2022-12-19T02:14:22.337Z,-2.04
2022-12-19T02:17:19.243Z,-1.58
2022-12-19T02:19:56.396Z,-1.71
2022-12-19T02:22:30.595Z,-1.45
2022-12-19T02:25:04.608Z,-1.72
2022-12-19T02:28:01.033Z,-1.78
2022-12-19T02:30:47.969Z,-1.47
2022-12-19T02:33:38.199Z,-2.25
2022-12-19T02:36:18.321Z,-2.38
2022-12-19T02:38:59.227Z,-2.49
2022-12-19T02:41:45.341Z,-2.11
2022-12-19T02:44:22.423Z,-2.02
2022-12-19T02:46:51.127Z,-1.68
2022-12-19T02:49:24.939Z,-1.59
2022-12-19T02:52:12.255Z,-2.21
2022-12-19T02:54:42.326Z,-1.52
2022-12-19T02:57:28.477Z,-1.62
2022-12-19T03:00:06.019Z,-1.28
2022-12-19T03:03:08.654Z,-2.10
2022-12-19T03:06:12.385Z,-1.80
2022-12-19T03:08:58.453Z,-1.55
2022-12-19T03:11:32.180Z,-1.00
2022-12-19T03:14:03.947Z,-1.54
2022-12-19T03:16:35.690Z,-1.78
2022-12-19T03:19:04.752Z,-1.25
2022-12-19T03:21:37.881Z,-1.04
2022-12-19T03:24:07.814Z,-1.24
2022-12-19T03:26:42.681Z,-1.19
2022-12-19T03:29:13.549Z,-0.77
2022-12-19T03:31:42.677Z,-0.96
2022-12-19T03:34:38.843Z,-1.04
2022-12-19T03:37:10.870Z,-0.86
2022-12-19T03:39:41.598Z,-0.87
2022-12-19T03:42:29.747Z,-0.92
2022-12-19T03:45:00.965Z,-1.07
2022-12-19T03:47:38.644Z,-0.87
2022-12-19T03:50:07.625Z,-1.45
2022-12-19T03:52:38.027Z,-0.98
2022-12-19T03:55:18.668Z,-0.97
2022-12-19T03:57:51.279Z,-1.21
2022-12-19T04:00:19.545Z,-0.79
2022-12-19T04:02:52.905Z,-0.96
2022-12-19T04:05:25.873Z,-1.18
2022-12-19T04:07:57.107Z,-0.74
2022-12-19T04:10:26.689Z,-0.72
2022-12-19T04:12:59.777Z,-1.20
2022-12-19T04:15:51.933Z,-0.71
2022-12-19T04:18:20.729Z,-0.67
2022-12-19T04:20:59.800Z,-0.83
2022-12-19T04:23:31.652Z,-0.80
2022-12-19T04:26:03.172Z,-0.78
2022-12-19T04:28:59.254Z,-0.53
2022-12-19T04:31:27.258Z,-0.44
2022-12-19T04:33:55.595Z,-0.63
2022-12-19T04:36:25.061Z,-0.47
2022-12-19T04:38:53.019Z,-0.37
2022-12-19T04:41:21.225Z,-0.51
2022-12-19T04:43:49.100Z,-0.57
2022-12-19T04:46:17.067Z,-0.43
2022-12-19T04:48:45.406Z,-0.21
2022-12-19T04:51:13.306Z,-0.24
2022-12-19T04:53:41.439Z,-0.49
2022-12-19T04:56:10.274Z,-0.15
2022-12-19T04:58:38.116Z,-0.15
2022-12-19T05:01:08.168Z,-0.29
2022-12-19T05:03:37.000Z,-0.22
2022-12-19T05:06:07.366Z,-0.55
2022-12-19T05:08:36.674Z,-0.47
2022-12-19T05:11:06.916Z,-0.21
2022-12-19T05:13:35.074Z,-0.41
2022-12-19T05:16:06.488Z,-0.49
2022-12-19T05:18:35.908Z,-0.12
2022-12-19T05:21:05.029Z,-0.18
2022-12-19T05:23:32.933Z,-0.10
2022-12-19T05:26:02.220Z,0.03
2022-12-19T05:28:31.198Z,0.17
2022-12-19T05:31:06.525Z,0.18
2022-12-19T05:33:35.306Z,0.16
2022-12-19T05:36:03.483Z,0.06
2022-12-19T05:38:31.706Z,-0.08
2022-12-19T05:41:00.110Z,0.18
2022-12-19T05:43:28.354Z,0.11
2022-12-19T05:45:56.210Z,0.02
2022-12-19T05:48:24.472Z,-0.07
2022-12-19T05:50:52.322Z,0.00
2022-12-19T05:53:24.631Z,0.24
2022-12-19T05:56:11.668Z,0.12
2022-12-19T05:58:40.573Z,0.11
2022-12-19T06:01:19.254Z,0.06
2022-12-19T06:03:47.939Z,0.05
2022-12-19T06:06:19.044Z,0.06
2022-12-19T06:08:47.320Z,0.17
2022-12-19T06:11:15.378Z,-0.18
2022-12-19T06:13:43.261Z,0.18
2022-12-19T06:16:14.059Z,0.09
2022-12-19T06:18:44.766Z,0.57
2022-12-19T06:21:15.668Z,0.04
2022-12-19T06:23:44.374Z,-0.23
2022-12-19T06:26:19.401Z,0.08
2022-12-19T06:28:49.656Z,0.03
2022-12-19T06:31:18.185Z,0.26
2022-12-19T06:33:46.472Z,-0.11
2022-12-19T06:36:16.771Z,-0.23
2022-12-19T06:38:44.835Z,0.19
2022-12-19T06:41:32.030Z,-0.21
2022-12-19T06:44:01.230Z,-0.22
2022-12-19T06:46:29.355Z,0.06
2022-12-19T06:48:57.344Z,-0.29
2022-12-19T06:51:25.897Z,-0.13
2022-12-19T06:53:54.266Z,-0.33
2022-12-19T06:56:22.371Z,-0.45
2022-12-19T06:58:51.331Z,-0.44
2022-12-19T07:01:21.252Z,-0.41
2022-12-19T07:03:49.518Z,-0.49
2022-12-19T07:06:17.771Z,-0.30
2022-12-19T07:08:45.752Z,-0.03
2022-12-19T07:11:13.713Z,0.17
2022-12-19T07:13:41.966Z,0.23
2022-12-19T07:16:09.948Z,-0.07
2022-12-19T07:18:39.838Z,0.21
2022-12-19T07:21:09.061Z,0.09
2022-12-19T07:23:37.354Z,-0.03
2022-12-19T07:26:05.651Z,-0.22
2022-12-19T07:28:34.130Z,-0.20
2022-12-19T07:31:02.044Z,-0.03
2022-12-19T07:33:29.956Z,-0.01
2022-12-19T07:35:58.211Z,0.08
2022-12-19T07:38:26.073Z,-0.14
2022-12-19T07:40:54.023Z,-0.02
2022-12-19T07:43:22.429Z,-0.14
2022-12-19T07:45:55.364Z,-0.25
2022-12-19T07:48:24.212Z,0.15
2022-12-19T07:50:52.267Z,-0.09
2022-12-19T07:53:20.105Z,-0.35
2022-12-19T07:55:52.300Z,-0.50
2022-12-19T07:58:20.811Z,-0.04
2022-12-19T08:00:56.952Z,-0.21
2022-12-19T08:03:25.747Z,0.28
2022-12-19T08:05:53.776Z,0.34
2022-12-19T08:08:21.767Z,-0.13
2022-12-19T08:10:50.114Z,-0.04
2022-12-19T08:13:18.095Z,-0.50
2022-12-19T08:15:46.294Z,-0.47
2022-12-19T08:18:14.786Z,-0.07
2022-12-19T08:20:45.827Z,0.16
2022-12-19T08:23:13.890Z,0.34
2022-12-19T08:25:42.361Z,0.41
2022-12-19T08:28:10.384Z,0.20
2022-12-19T08:30:40.204Z,0.47
2022-12-19T08:33:08.659Z,0.27
2022-12-19T08:35:37.414Z,0.09
2022-12-19T08:38:05.619Z,0.19
2022-12-19T08:40:34.297Z,0.55
2022-12-19T08:43:02.360Z,0.45
2022-12-19T08:45:30.813Z,0.64
2022-12-19T08:47:59.054Z,0.99
2022-12-19T08:50:26.985Z,1.93
2022-12-19T08:52:55.016Z,2.06
2022-12-19T08:55:24.978Z,3.21
2022-12-19T08:57:55.213Z,2.80
2022-12-19T09:00:23.686Z,3.01
2022-12-19T09:02:52.756Z,3.63
2022-12-19T09:05:58.414Z,3.16
2022-12-19T09:08:09.208Z,3.00
2022-12-19T09:10:38.111Z,2.70
2022-12-19T09:13:06.339Z,3.47
2022-12-19T09:15:34.679Z,3.23
2022-12-19T09:18:04.352Z,3.23
2022-12-19T09:20:32.333Z,3.18
2022-12-19T09:23:00.719Z,3.64
2022-12-19T09:25:28.623Z,3.14
2022-12-19T09:28:26.273Z,2.93
2022-12-19T09:30:45.240Z,2.50
2022-12-19T09:33:13.332Z,2.34
2022-12-19T09:35:50.305Z,2.36
2022-12-19T09:38:21.522Z,1.87
2022-12-19T09:41:29.988Z,2.07
2022-12-19T09:43:58.422Z,2.33
2022-12-19T09:46:37.810Z,3.26
2022-12-19T09:49:17.236Z,3.62
2022-12-19T09:52:02.605Z,4.82
2022-12-19T09:55:01.790Z,5.94
2022-12-19T09:57:52.269Z,6.89
2022-12-19T10:00:22.625Z,6.32
2022-12-19T10:02:58.460Z,5.26
2022-12-19T10:07:06.979Z,3.84
2022-12-19T10:08:46.765Z,4.43
2022-12-19T10:12:40.261Z,5.36
2022-12-19T10:15:09.353Z,6.59
2022-12-19T10:17:58.647Z,6.90
2022-12-19T10:20:38.877Z,6.70
2022-12-19T10:23:32.044Z,7.34
2022-12-19T10:26:29.786Z,7.38
2022-12-19T10:29:17.682Z,7.96
2022-12-19T10:31:55.473Z,8.00
2022-12-19T10:34:34.309Z,7.70
2022-12-19T10:37:39.822Z,7.74
2022-12-19T10:40:28.317Z,7.30
2022-12-19T10:43:30.399Z,7.47
2022-12-19T10:46:08.046Z,6.66
2022-12-19T10:48:36.368Z,6.86
2022-12-19T10:51:06.761Z,8.15
2022-12-19T10:53:35.184Z,7.87
2022-12-19T10:56:13.505Z,7.91
2022-12-19T10:58:44.530Z,8.32
2022-12-19T11:01:17.302Z,8.42
2022-12-19T11:03:50.228Z,8.40
2022-12-19T11:06:42.864Z,8.19
2022-12-19T11:09:42.588Z,8.06
2022-12-19T11:15:44.018Z,7.84
2022-12-19T11:19:26.795Z,7.69
2022-12-19T11:27:10.532Z,6.08
2022-12-19T11:29:33.803Z,4.90
2022-12-19T11:29:35.302Z,5.31
2022-12-19T11:29:44.348Z,6.58
2022-12-19T11:32:44.490Z,5.50
2022-12-19T11:35:16.806Z,5.18
2022-12-19T11:38:06.246Z,5.71
2022-12-19T11:40:49.204Z,5.43
2022-12-19T11:43:46.219Z,5.42
2022-12-19T11:46:50.580Z,5.60
2022-12-19T11:49:28.208Z,4.27
2022-12-19T11:53:02.974Z,4.18
2022-12-19T11:55:52.280Z,4.24
2022-12-19T11:58:23.286Z,5.74
2022-12-19T12:01:13.213Z,5.66
2022-12-19T12:04:04.174Z,5.73
2022-12-19T12:06:34.961Z,4.98
2022-12-19T12:13:13.576Z,5.98
2022-12-19T12:20:40.107Z,6.26
2022-12-19T12:27:48.181Z,6.39
2022-12-19T12:31:16.208Z,4.73
2022-12-19T12:31:23.448Z,5.55
2022-12-19T12:31:26.086Z,5.99
2022-12-19T12:31:44.836Z,4.72
2022-12-19T12:31:58.103Z,4.83
2022-12-19T12:35:51.082Z,4.62
2022-12-19T12:40:09.323Z,3.18
2022-12-19T12:42:57.577Z,3.07
2022-12-19T12:45:41.095Z,2.59
2022-12-19T12:48:30.464Z,2.52
2022-12-19T12:51:00.876Z,2.71
2022-12-19T12:53:33.665Z,2.58
2022-12-19T12:56:05.700Z,2.36
2022-12-19T12:58:45.645Z,2.42
2022-12-19T13:01:29.015Z,2.10
2022-12-19T13:03:59.749Z,2.04
2022-12-19T13:06:33.671Z,2.43
2022-12-19T13:09:20.964Z,2.30
2022-12-19T13:12:11.808Z,2.57
2022-12-19T13:14:39.864Z,1.95
2022-12-19T13:17:32.062Z,1.77
2022-12-19T13:20:05.698Z,1.79
2022-12-19T13:22:33.934Z,1.68
2022-12-19T13:25:02.043Z,1.71
2022-12-19T13:27:38.224Z,1.65
2022-12-19T13:30:14.411Z,1.31
2022-12-19T13:32:44.200Z,1.42
2022-12-19T13:36:12.110Z,1.75
2022-12-19T13:39:54.017Z,1.68
2022-12-19T13:41:48.710Z,1.48
2022-12-19T13:44:21.612Z,1.41
2022-12-19T13:46:50.252Z,1.32
2022-12-19T13:49:33.261Z,1.06
2022-12-19T13:52:04.771Z,1.20
2022-12-19T13:54:46.946Z,1.58
2022-12-19T13:57:30.288Z,1.13
2022-12-19T14:00:01.802Z,1.30
2022-12-19T14:02:44.057Z,1.23
2022-12-19T14:06:14.540Z,0.96
2022-12-19T14:08:22.412Z,1.07
2022-12-19T14:11:37.764Z,1.06
2022-12-19T14:14:17.792Z,1.05
2022-12-19T14:16:52.206Z,1.24
2022-12-19T14:19:31.091Z,1.16
2022-12-19T14:22:25.545Z,1.41
2022-12-19T14:25:07.009Z,0.68
2022-12-19T14:28:24.034Z,0.82
2022-12-19T14:30:52.788Z,0.86
2022-12-19T14:33:44.185Z,0.97
2022-12-19T14:36:16.498Z,1.08
2022-12-19T14:39:27.054Z,1.14
2022-12-19T14:42:03.579Z,1.09
2022-12-19T14:52:35.005Z,0.60
2022-12-19T14:54:02.055Z,0.59
2022-12-19T14:54:22.388Z,0.50
2022-12-19T14:54:32.219Z,0.80
2022-12-19T14:56:45.100Z,0.68
2022-12-19T14:59:29.077Z,0.48
2022-12-19T15:02:06.882Z,0.27
2022-12-19T15:04:54.542Z,-0.07
2022-12-19T15:07:26.207Z,-0.11
2022-12-19T15:11:09.293Z,0.02
2022-12-19T15:14:48.130Z,0.10
2022-12-19T15:16:29.238Z,0.56
2022-12-19T15:19:01.308Z,0.16
2022-12-19T15:21:30.728Z,0.26
2022-12-19T15:23:59.082Z,0.27
2022-12-19T15:26:29.917Z,0.63
2022-12-19T15:28:58.731Z,-0.07
2022-12-19T15:31:38.898Z,-0.03
2022-12-19T15:34:37.248Z,-0.40
2022-12-19T15:37:14.427Z,-0.27
2022-12-19T15:39:43.856Z,0.16
2022-12-19T15:42:21.637Z,0.05
2022-12-19T15:44:50.294Z,0.33
2022-12-19T15:47:30.628Z,0.06
2022-12-19T15:50:04.476Z,0.06
2022-12-19T15:52:32.684Z,-0.06
2022-12-19T15:55:01.099Z,-0.26
2022-12-19T15:57:34.899Z,-0.22
2022-12-19T16:00:08.755Z,-0.33
2022-12-19T16:03:13.233Z,0.11
2022-12-19T16:05:26.819Z,-0.17
2022-12-19T16:07:57.473Z,-0.17
2022-12-19T16:10:26.057Z,0.20
2022-12-19T16:12:56.214Z,-0.05
2022-12-19T16:15:25.768Z,0.14
2022-12-19T16:17:54.956Z,-0.02
2022-12-19T16:20:27.108Z,-0.16
2022-12-19T16:22:57.500Z,0.04
2022-12-19T16:25:34.088Z,0.07
2022-12-19T16:28:02.433Z,-0.46
2022-12-19T16:30:32.983Z,-0.42
2022-12-19T16:33:01.449Z,-0.62
2022-12-19T16:36:02.433Z,-0.17
2022-12-19T16:38:19.321Z,-0.01
2022-12-19T16:40:49.612Z,0.03
2022-12-19T16:43:31.012Z,-0.69
2022-12-19T16:46:01.393Z,-0.35
2022-12-19T16:48:30.410Z,-0.01
2022-12-19T16:50:59.774Z,0.07
2022-12-19T16:53:28.411Z,0.25
2022-12-19T16:55:57.022Z,0.33
2022-12-19T16:58:27.049Z,0.32
2022-12-19T17:00:56.106Z,0.32
2022-12-19T17:03:36.315Z,0.17
2022-12-19T17:06:04.982Z,0.33
2022-12-19T17:08:32.914Z,0.06
2022-12-19T17:11:00.927Z,0.17
2022-12-19T17:13:29.585Z,0.40
2022-12-19T17:15:58.642Z,0.42
2022-12-19T17:18:33.759Z,0.32
2022-12-19T17:21:02.338Z,0.51
2022-12-19T17:23:32.825Z,0.36
2022-12-19T17:26:01.473Z,0.03
2022-12-19T17:28:30.040Z,0.28
2022-12-19T17:31:00.376Z,0.32
2022-12-19T17:33:33.825Z,0.23
2022-12-19T17:36:02.600Z,0.22
2022-12-19T17:38:31.072Z,0.63
2022-12-19T17:40:59.734Z,0.54
2022-12-19T17:43:27.707Z,0.64
2022-12-19T17:45:56.252Z,0.66
2022-12-19T17:48:29.991Z,0.18
2022-12-19T17:50:58.943Z,0.02
2022-12-19T17:53:27.081Z,0.31
2022-12-19T17:55:54.991Z,0.42
2022-12-19T17:58:23.435Z,0.79
2022-12-19T18:00:51.807Z,0.55
2022-12-19T18:03:23.353Z,0.45
2022-12-19T18:05:55.428Z,0.24
2022-12-19T18:08:33.391Z,0.51
2022-12-19T18:11:03.289Z,0.47
2022-12-19T18:13:32.553Z,-0.09
2022-12-19T18:16:02.082Z,0.42
2022-12-19T18:18:35.414Z,0.50
2022-12-19T18:21:04.570Z,0.46
2022-12-19T18:23:33.328Z,0.11
2022-12-19T18:26:02.643Z,0.22
2022-12-19T18:28:31.205Z,0.47
2022-12-19T18:31:02.721Z,0.20
2022-12-19T18:33:37.517Z,0.25
2022-12-19T18:36:07.004Z,0.27
2022-12-19T18:38:35.521Z,0.12
2022-12-19T18:41:03.658Z,0.04
2022-12-19T18:43:32.469Z,0.15
2022-12-19T18:46:00.917Z,0.36
2022-12-19T18:48:34.483Z,0.26
2022-12-19T18:51:03.796Z,0.29
2022-12-19T18:53:35.515Z,0.28
2022-12-19T18:56:06.235Z,0.41
2022-12-19T18:58:34.631Z,0.14
2022-12-19T19:01:04.163Z,0.48
2022-12-19T19:03:39.936Z,0.13
2022-12-19T19:06:37.894Z,-0.18
2022-12-19T19:09:16.124Z,0.42
2022-12-19T19:11:45.937Z,0.05
2022-12-19T19:14:14.882Z,0.16
2022-12-19T19:16:43.035Z,0.41
2022-12-19T19:19:12.648Z,0.15
2022-12-19T19:21:41.948Z,0.35
2022-12-19T19:24:16.125Z,0.42
2022-12-19T19:26:44.807Z,0.25
2022-12-19T19:29:15.571Z,0.28
2022-12-19T19:31:46.294Z,0.13
2022-12-19T19:34:21.857Z,0.39
2022-12-19T19:36:53.848Z,0.36
2022-12-19T19:39:23.125Z,0.45
2022-12-19T19:41:51.065Z,0.50
2022-12-19T19:44:18.955Z,0.30
2022-12-19T19:46:47.356Z,0.16
2022-12-19T19:49:16.002Z,0.04
2022-12-19T19:51:43.898Z,0.47
2022-12-19T19:54:12.330Z,0.36
2022-12-19T19:56:40.486Z,0.46
2022-12-19T19:59:08.691Z,0.21
2022-12-19T20:01:37.090Z,0.46
2022-12-19T20:04:05.786Z,0.04
2022-12-19T20:06:33.756Z,0.42
2022-12-19T20:09:01.657Z,0.14
2022-12-19T20:11:30.762Z,0.48
2022-12-19T20:13:58.552Z,0.81
2022-12-19T20:16:26.700Z,0.35
2022-12-19T20:18:55.113Z,0.50
2022-12-19T20:21:24.796Z,0.50
2022-12-19T20:23:52.868Z,0.67
2022-12-19T20:26:21.295Z,0.55
2022-12-19T20:28:50.803Z,0.33
2022-12-19T20:31:20.773Z,0.48
2022-12-19T20:33:50.681Z,0.12
2022-12-19T20:36:18.980Z,-0.02
2022-12-19T20:38:47.510Z,0.31
2022-12-19T20:41:16.795Z,0.08
2022-12-19T20:43:45.345Z,0.11
2022-12-19T20:46:16.805Z,0.39
2022-12-19T20:48:46.206Z,0.46
2022-12-19T20:51:15.186Z,-0.07
2022-12-19T20:53:43.993Z,0.64
2022-12-19T20:56:17.378Z,0.82
2022-12-19T20:58:46.428Z,0.68
2022-12-19T21:01:20.472Z,0.68
2022-12-19T21:03:49.363Z,0.85
2022-12-19T21:06:19.632Z,0.85
2022-12-19T21:08:47.896Z,0.71
2022-12-19T21:11:16.300Z,0.60
2022-12-19T21:13:45.038Z,0.77
2022-12-19T21:16:15.686Z,0.59
2022-12-19T21:18:45.063Z,0.29
2022-12-19T21:21:21.353Z,0.79
2022-12-19T21:23:50.483Z,0.69
2022-12-19T21:26:19.379Z,0.69
2022-12-19T21:28:47.440Z,0.57
2022-12-19T21:31:19.002Z,0.55
2022-12-19T21:33:47.966Z,0.55
2022-12-19T21:36:21.021Z,0.49
2022-12-19T21:38:51.333Z,0.28
2022-12-19T21:41:19.637Z,0.56
2022-12-19T21:43:49.508Z,0.56
2022-12-19T21:46:18.331Z,0.50
2022-12-19T21:48:48.376Z,0.59
2022-12-19T21:51:18.847Z,0.31
2022-12-19T21:53:47.956Z,0.63
2022-12-19T21:56:18.609Z,0.68
2022-12-19T21:58:47.094Z,0.46
2022-12-19T22:01:15.868Z,-0.18
2022-12-19T22:03:44.578Z,0.08
2022-12-19T22:06:21.002Z,0.38
2022-12-19T22:08:53.952Z,0.03
2022-12-19T22:11:22.090Z,0.24
2022-12-19T22:13:50.726Z,0.54
2022-12-19T22:16:19.047Z,0.41
2022-12-19T22:18:47.340Z,0.42
2022-12-19T22:21:15.877Z,0.44
2022-12-19T22:23:44.180Z,0.44
2022-12-19T22:26:17.436Z,0.09
2022-12-19T22:28:47.837Z,0.33
2022-12-19T22:31:25.286Z,0.42
2022-12-19T22:34:01.516Z,0.03
2022-12-19T22:36:31.605Z,0.10
2022-12-19T22:39:01.422Z,0.14
2022-12-19T22:41:29.753Z,0.10
2022-12-19T22:43:57.731Z,0.51
2022-12-19T22:46:32.114Z,-0.30
2022-12-19T22:49:02.667Z,-0.41
2022-12-19T22:51:32.169Z,-0.30
2022-12-19T22:54:00.497Z,0.14
2022-12-19T22:56:30.269Z,0.09
2022-12-19T22:59:04.888Z,0.33
2022-12-19T23:01:37.229Z,0.14
2022-12-19T23:04:07.075Z,0.12
2022-12-19T23:06:36.489Z,0.14
2022-12-19T23:09:06.608Z,-0.08
2022-12-19T23:11:37.617Z,-0.20
2022-12-19T23:14:06.988Z,-0.07
2022-12-19T23:16:35.889Z,0.23
2022-12-19T23:19:05.438Z,0.41
2022-12-19T23:21:33.398Z,0.56
2022-12-19T23:24:01.725Z,-0.16
2022-12-19T23:26:33.352Z,0.32
2022-12-19T23:29:10.010Z,0.31
2022-12-19T23:31:40.538Z,0.46
2022-12-19T23:34:10.781Z,0.31
2022-12-19T23:37:09.545Z,0.23
2022-12-19T23:39:27.197Z,0.60
2022-12-19T23:41:55.040Z,0.33
2022-12-19T23:44:23.096Z,0.25
2022-12-19T23:46:51.476Z,0.01
2022-12-19T23:49:19.372Z,-0.16
2022-12-19T23:51:47.222Z,0.06
2022-12-19T23:54:15.643Z,-0.10
2022-12-19T23:56:43.512Z,0.32
2022-12-19T23:59:11.333Z,0.14
